Time;durP1;ratioP1;P1;durP2;ratioP2;P2;SDS_P1;SDS_P2;PMS_P1;PMS_P2;Temp;Humidity;BMP_temperature;BMP_pressure;BME280_temperature;BME280_humidity;BME280_pressure;Samples;Min_cycle;Max_cycle;Signal;HPM_P1;HPM_P2
2023/10/02 00:01:52;;;;;;;;;17.25;14.25;;;;;;;;5127062;27;8792;-72
2023/10/02 00:04:18;;;;;;;;;21.00;16.00;;;;;;;;5123668;27;10224;-72
2023/10/02 00:06:43;;;;;;;;;16.00;12.50;;;;;;;;5122430;28;10268;-72
2023/10/02 00:09:09;;;;;;;;;19.50;15.00;;;;;;;;5130137;27;9498;-72
2023/10/02 00:11:39;;;;;;;;;15.75;11.00;;;;;;;;5137238;27;8823;-72
2023/10/02 00:14:26;;;;;;;;;23.25;15.25;;;;;;;;5144387;27;8868;-72
2023/10/02 00:17:08;;;;;;;;;19.25;15.50;;;;;;;;5128705;27;10266;-72
2023/10/02 00:19:37;;;;;;;;;22.25;15.25;;;;;;;;5123050;27;10389;-72
2023/10/02 00:22:08;;;;;;;;;19.25;12.50;;;;;;;;5123486;28;10243;-72
2023/10/02 00:24:39;;;;;;;;;17.25;15.25;;;;;;;;5130134;27;10094;-72
2023/10/02 00:27:06;;;;;;;;;22.50;14.50;;;;;;;;5131721;27;10055;-73
2023/10/02 00:29:31;;;;;;;;;23.50;17.00;;;;;;;;5116702;27;10350;-72
2023/10/02 00:31:57;;;;;;;;;18.25;16.50;;;;;;;;5122879;27;10307;-72
2023/10/02 00:34:32;;;;;;;;;18.25;15.75;;;;;;;;5131418;27;8788;-72
2023/10/02 00:37:13;;;;;;;;;17.75;12.25;;;;;;;;5127123;27;8727;-72
2023/10/02 00:39:41;;;;;;;;;20.00;13.50;;;;;;;;5126432;27;10571;-72
2023/10/02 00:42:17;;;;;;;;;15.50;15.25;;;;;;;;5127693;27;10039;-72
2023/10/02 00:44:52;;;;;;;;;22.75;16.00;;;;;;;;5143060;27;10195;-72
2023/10/02 00:47:41;;;;;;;;;16.25;14.25;;;;;;;;5102856;28;10100;-72
2023/10/02 00:50:20;;;;;;;;;16.50;15.50;;;;;;;;5102707;28;10494;-72
2023/10/02 00:52:59;;;;;;;;;21.50;18.75;;;;;;;;5102302;27;10460;-72
2023/10/02 00:55:35;;;;;;;;;17.50;14.00;;;;;;;;5142751;27;10437;-72
2023/10/02 00:58:03;;;;;;;;;19.50;16.00;;;;;;;;5136110;27;10282;-72
2023/10/02 01:00:35;;;;;;;;;16.25;15.50;;;;;;;;5132099;27;10525;-72
2023/10/02 01:03:01;;;;;;;;;16.25;12.25;;;;;;;;5113847;27;10322;-72
2023/10/02 01:05:31;;;;;;;;;24.50;16.50;;;;;;;;5123170;27;11129;-72
2023/10/02 01:07:57;;;;;;;;;17.75;14.00;;;;;;;;5122003;27;8770;-72
2023/10/02 01:10:23;;;;;;;;;20.75;16.75;;;;;;;;5121595;28;10546;-72
2023/10/02 01:12:53;;;;;;;;;17.75;14.00;;;;;;;;5122640;27;10283;-72
2023/10/02 01:15:19;;;;;;;;;17.50;16.75;;;;;;;;5135923;27;10408;-72
2023/10/02 01:17:48;;;;;;;;;12.75;11.50;;;;;;;;5143535;27;10437;-72
2023/10/02 01:20:35;;;;;;;;;15.00;13.50;;;;;;;;5133767;27;10337;-72
2023/10/02 01:23:11;;;;;;;;;15.00;14.00;;;;;;;;5121157;27;10375;-72
2023/10/02 01:25:38;;;;;;;;;16.50;13.50;;;;;;;;5122306;27;10134;-72
2023/10/02 01:28:03;;;;;;;;;20.25;14.50;;;;;;;;5142256;27;10213;-72
2023/10/02 01:30:29;;;;;;;;;21.00;16.00;;;;;;;;5142825;27;10415;-72
2023/10/02 01:35:46;;;;;;;;;18.50;13.75;;;;;;;;5125336;27;8747;-72
2023/10/02 01:38:13;;;;;;;;;17.75;13.50;;;;;;;;5140117;27;10391;-72
2023/10/02 01:40:43;;;;;;;;;21.25;17.50;;;;;;;;5127116;27;10517;-72
2023/10/02 01:43:13;;;;;;;;;21.50;17.25;;;;;;;;5141332;27;10464;-72
2023/10/02 01:45:45;;;;;;;;;15.75;12.75;;;;;;;;5134642;27;10368;-72
2023/10/02 01:48:13;;;;;;;;;17.50;13.00;;;;;;;;5137901;27;10288;-72
2023/10/02 01:50:38;;;;;;;;;15.50;13.00;;;;;;;;5130276;27;10370;-72
2023/10/02 01:53:05;;;;;;;;;25.25;15.75;;;;;;;;5126416;27;11084;-72
2023/10/02 01:55:32;;;;;;;;;20.25;16.75;;;;;;;;5143219;27;8781;-72
2023/10/02 01:58:16;;;;;;;;;21.25;17.75;;;;;;;;5143160;27;10533;-72
2023/10/02 02:00:42;;;;;;;;;21.75;14.75;;;;;;;;5145505;27;10650;-72
2023/10/02 02:03:17;;;;;;;;;23.00;15.00;;;;;;;;5122228;27;11052;-72
2023/10/02 02:05:44;;;;;;;;;16.75;14.25;;;;;;;;5123675;28;9803;-72
2023/10/02 02:08:21;;;;;;;;;23.50;16.50;;;;;;;;5137883;27;10417;-72
2023/10/02 02:10:48;;;;;;;;;17.75;13.00;;;;;;;;5146259;27;10632;-72
2023/10/02 02:13:13;;;;;;;;;20.50;15.50;;;;;;;;5145449;27;10437;-72
2023/10/02 02:15:44;;;;;;;;;14.25;13.75;;;;;;;;5125231;27;10427;-72
2023/10/02 02:18:09;;;;;;;;;14.00;12.50;;;;;;;;5128379;27;8765;-72
2023/10/02 02:20:44;;;;;;;;;17.75;11.25;;;;;;;;5143980;27;10583;-72
2023/10/02 02:23:14;;;;;;;;;26.25;18.50;;;;;;;;5145454;27;8729;-72
2023/10/02 02:25:39;;;;;;;;;18.25;13.75;;;;;;;;5144285;27;10601;-72
2023/10/02 02:28:06;;;;;;;;;21.50;16.25;;;;;;;;5140079;27;10417;-72
2023/10/02 02:30:40;;;;;;;;;20.75;13.75;;;;;;;;5140060;27;8737;-72
2023/10/02 02:33:07;;;;;;;;;19.25;17.00;;;;;;;;5104799;28;10283;-73
2023/10/02 02:35:35;;;;;;;;;23.75;16.50;;;;;;;;5140022;27;10635;-72
2023/10/02 02:38:02;;;;;;;;;20.00;15.50;;;;;;;;5136560;27;10577;-72
2023/10/02 02:40:30;;;;;;;;;18.25;15.25;;;;;;;;5125036;27;10648;-72
2023/10/02 02:42:56;;;;;;;;;21.75;18.25;;;;;;;;5119856;27;10441;-72
2023/10/02 02:45:28;;;;;;;;;17.50;14.50;;;;;;;;5145084;27;10531;-72
2023/10/02 02:48:07;;;;;;;;;18.50;15.75;;;;;;;;5122055;27;10497;-72
2023/10/02 02:50:36;;;;;;;;;17.50;15.00;;;;;;;;5123956;27;10556;-72
2023/10/02 02:53:17;;;;;;;;;24.00;19.25;;;;;;;;5131803;27;10638;-72
2023/10/02 02:55:57;;;;;;;;;23.50;14.75;;;;;;;;5141028;27;10408;-72
2023/10/02 02:58:25;;;;;;;;;16.75;15.25;;;;;;;;5144139;27;10467;-72
2023/10/02 03:00:52;;;;;;;;;21.75;15.75;;;;;;;;5143679;27;10196;-72
2023/10/02 03:03:32;;;;;;;;;20.00;16.75;;;;;;;;5135455;27;10550;-72
2023/10/02 03:05:58;;;;;;;;;19.00;17.00;;;;;;;;5145543;27;10489;-72
2023/10/02 03:08:36;;;;;;;;;18.25;14.75;;;;;;;;5127376;27;10442;-72
2023/10/02 03:11:06;;;;;;;;;16.00;15.00;;;;;;;;5124630;27;8766;-72
2023/10/02 03:13:31;;;;;;;;;30.75;18.00;;;;;;;;5132989;27;10548;-72
2023/10/02 03:16:08;;;;;;;;;21.25;16.75;;;;;;;;5145155;27;10521;-72
2023/10/02 03:18:36;;;;;;;;;26.75;21.25;;;;;;;;5132278;27;8766;-72
2023/10/02 03:23:38;;;;;;;;;25.25;20.75;;;;;;;;5126960;27;10567;-72
2023/10/02 03:26:07;;;;;;;;;18.25;12.25;;;;;;;;5122177;27;10423;-72
2023/10/02 03:28:33;;;;;;;;;21.25;19.25;;;;;;;;5136854;27;10455;-72
2023/10/02 03:30:58;;;;;;;;;24.75;19.00;;;;;;;;5123741;27;10592;-72
2023/10/02 03:33:27;;;;;;;;;22.75;18.25;;;;;;;;5123966;27;8848;-72
2023/10/02 03:36:04;;;;;;;;;18.00;14.00;;;;;;;;5124404;27;8781;-72
2023/10/02 03:38:32;;;;;;;;;19.25;15.00;;;;;;;;5124296;27;10548;-72
2023/10/02 03:40:58;;;;;;;;;18.50;17.25;;;;;;;;5111360;27;10765;-72
2023/10/02 03:43:34;;;;;;;;;20.50;16.75;;;;;;;;5124558;27;10601;-72
2023/10/02 03:46:06;;;;;;;;;16.00;13.25;;;;;;;;5140843;27;8976;-72
2023/10/02 03:48:32;;;;;;;;;18.25;17.50;;;;;;;;5125607;27;10447;-72
2023/10/02 03:50:58;;;;;;;;;18.75;15.75;;;;;;;;5136523;27;10620;-72
2023/10/02 03:53:30;;;;;;;;;19.25;14.25;;;;;;;;5128979;27;10289;-72
2023/10/02 03:56:02;;;;;;;;;10.75;8.00;;;;;;;;5139118;27;9740;-72
2023/10/02 03:58:38;;;;;;;;;17.00;14.75;;;;;;;;5121730;27;10401;-72
2023/10/02 04:01:08;;;;;;;;;19.00;16.00;;;;;;;;5111434;27;10595;-72
2023/10/02 04:03:33;;;;;;;;;16.00;14.75;;;;;;;;5123179;27;10419;-72
2023/10/02 04:06:00;;;;;;;;;18.00;14.50;;;;;;;;5123189;27;10022;-72
2023/10/02 04:08:37;;;;;;;;;23.75;14.50;;;;;;;;5123625;27;8750;-72
2023/10/02 04:11:05;;;;;;;;;19.50;16.50;;;;;;;;5125434;27;10461;-72
2023/10/02 04:13:35;;;;;;;;;17.75;12.25;;;;;;;;5138896;27;11016;-72
2023/10/02 04:18:49;;;;;;;;;23.00;15.75;;;;;;;;5139749;27;10374;-72
2023/10/02 04:21:19;;;;;;;;;22.00;16.00;;;;;;;;5131821;27;10480;-72
2023/10/02 04:23:45;;;;;;;;;16.25;14.00;;;;;;;;5143160;27;10368;-72
2023/10/02 04:26:20;;;;;;;;;15.75;14.00;;;;;;;;5127242;27;10405;-71
2023/10/02 04:28:49;;;;;;;;;17.75;14.50;;;;;;;;5144140;27;8811;-72
2023/10/02 04:31:20;;;;;;;;;19.75;12.25;;;;;;;;5134992;27;10573;-72
2023/10/02 04:33:52;;;;;;;;;19.25;14.00;;;;;;;;5123436;27;11350;-72
2023/10/02 04:36:34;;;;;;;;;20.50;15.25;;;;;;;;5141239;27;10269;-72
2023/10/02 04:39:04;;;;;;;;;17.50;15.75;;;;;;;;5143476;27;10429;-72
2023/10/02 04:41:37;;;;;;;;;16.00;14.75;;;;;;;;5132484;27;10526;-72
2023/10/02 04:44:04;;;;;;;;;17.25;10.50;;;;;;;;5121510;28;10418;-71
2023/10/02 04:46:32;;;;;;;;;21.50;13.75;;;;;;;;5121041;27;10476;-72
2023/10/02 04:49:00;;;;;;;;;17.75;11.25;;;;;;;;5125708;27;10315;-72
2023/10/02 04:51:28;;;;;;;;;22.75;16.50;;;;;;;;5125289;27;11324;-72
2023/10/02 04:53:57;;;;;;;;;18.25;13.75;;;;;;;;5122811;28;10648;-72
2023/10/02 04:56:24;;;;;;;;;17.75;14.00;;;;;;;;5124512;27;10386;-72
2023/10/02 04:58:50;;;;;;;;;16.25;15.00;;;;;;;;5143851;27;10408;-72
2023/10/02 05:01:29;;;;;;;;;17.00;13.00;;;;;;;;5133879;27;10616;-72
2023/10/02 05:03:55;;;;;;;;;16.00;13.50;;;;;;;;5122902;27;10446;-71
2023/10/02 05:14:53;;;;;;;;;20.75;13.00;;;;;;;;5077517;28;10448;-73
2023/10/02 05:17:19;;;;;;;;;18.50;16.00;;;;;;;;5068198;28;10617;-75
2023/10/02 05:19:56;;;;;;;;;15.50;12.50;;;;;;;;5078891;28;10595;-74
2023/10/02 05:22:27;;;;;;;;;19.50;12.50;;;;;;;;5078361;28;10721;-74
2023/10/02 05:24:58;;;;;;;;;23.00;15.50;;;;;;;;5078592;28;10220;-75
2023/10/02 05:27:29;;;;;;;;;15.25;10.75;;;;;;;;5071259;28;10378;-74
2023/10/02 05:29:55;;;;;;;;;12.75;12.00;;;;;;;;5070749;28;10227;-73
2023/10/02 05:32:23;;;;;;;;;10.50;10.00;;;;;;;;5083997;28;10138;-73
2023/10/02 05:37:39;;;;;;;;;15.50;11.50;;;;;;;;5064233;28;10318;-72
2023/10/02 05:45:39;;;;;;;;;17.25;11.75;;;;;;;;5073193;28;10570;-72
2023/10/02 05:48:14;;;;;;;;;18.00;13.25;;;;;;;;5086284;28;10060;-71
2023/10/02 05:50:47;;;;;;;;;16.25;12.50;;;;;;;;5122452;27;10442;-72
2023/10/02 05:53:12;;;;;;;;;16.25;11.50;;;;;;;;5124417;27;10801;-72
2023/10/02 05:58:27;;;;;;;;;21.25;14.00;;;;;;;;5121841;27;8887;-72
2023/10/02 06:00:53;;;;;;;;;18.50;14.00;;;;;;;;5123104;27;10198;-73
2023/10/02 06:03:18;;;;;;;;;18.50;15.75;;;;;;;;5124367;27;10695;-71
2023/10/02 06:06:06;;;;;;;;;16.50;11.25;;;;;;;;5123823;27;8826;-72
2023/10/02 06:08:33;;;;;;;;;19.25;15.00;;;;;;;;5123067;27;8766;-71
2023/10/02 06:11:08;;;;;;;;;14.75;13.75;;;;;;;;5131507;27;10334;-71
2023/10/02 06:13:37;;;;;;;;;26.00;15.75;;;;;;;;5128083;27;10441;-74
2023/10/02 06:16:03;;;;;;;;;15.75;14.00;;;;;;;;5124217;27;10438;-73
2023/10/02 06:18:28;;;;;;;;;21.25;15.50;;;;;;;;5125806;27;10259;-73
2023/10/02 06:21:03;;;;;;;;;13.00;11.75;;;;;;;;5145105;27;10631;-74
2023/10/02 06:23:38;;;;;;;;;14.25;12.50;;;;;;;;5118118;27;8830;-75
2023/10/02 06:26:04;;;;;;;;;15.50;12.75;;;;;;;;5119051;27;10247;-72
2023/10/02 06:28:30;;;;;;;;;17.25;13.75;;;;;;;;5144775;27;10339;-75
2023/10/02 06:30:55;;;;;;;;;23.00;13.50;;;;;;;;5145749;27;10263;-74
2023/10/02 06:33:24;;;;;;;;;20.75;16.25;;;;;;;;5134672;27;10704;-73
2023/10/02 06:35:57;;;;;;;;;25.25;15.00;;;;;;;;5124918;27;8819;-72
2023/10/02 06:38:25;;;;;;;;;19.75;13.00;;;;;;;;5122741;27;10494;-71
2023/10/02 06:40:57;;;;;;;;;18.25;15.25;;;;;;;;5113811;27;10532;-72
2023/10/02 06:43:28;;;;;;;;;20.25;14.25;;;;;;;;5123798;27;10721;-71
2023/10/02 06:46:06;;;;;;;;;17.75;15.50;;;;;;;;5125345;27;10567;-71
2023/10/02 06:48:47;;;;;;;;;16.00;15.50;;;;;;;;5123284;27;10337;-71
2023/10/02 06:51:13;;;;;;;;;17.50;15.00;;;;;;;;5126711;27;11602;-73
2023/10/02 06:53:40;;;;;;;;;24.25;14.25;;;;;;;;5124842;27;10336;-73
2023/10/02 06:56:18;;;;;;;;;23.50;14.75;;;;;;;;5128459;27;10153;-73
2023/10/02 06:58:52;;;;;;;;;20.50;13.25;;;;;;;;5124515;27;10544;-73
2023/10/02 07:01:20;;;;;;;;;19.50;14.50;;;;;;;;5118780;27;10403;-73
2023/10/02 07:03:52;;;;;;;;;23.25;15.00;;;;;;;;5124038;27;10456;-72
2023/10/02 07:06:19;;;;;;;;;22.00;15.75;;;;;;;;5124728;27;10263;-72
2023/10/02 07:08:47;;;;;;;;;24.50;15.75;;;;;;;;5124169;27;10255;-72
2023/10/02 07:11:13;;;;;;;;;18.50;15.25;;;;;;;;5124090;27;10365;-72
2023/10/02 07:13:51;;;;;;;;;19.00;17.00;;;;;;;;5124186;28;10564;-72
2023/10/02 07:16:17;;;;;;;;;21.50;17.75;;;;;;;;5124465;27;8784;-72
2023/10/02 07:18:49;;;;;;;;;23.00;12.75;;;;;;;;5124489;28;10231;-72
2023/10/02 07:21:19;;;;;;;;;21.50;14.75;;;;;;;;5144166;27;10127;-72
2023/10/02 07:23:46;;;;;;;;;19.00;16.25;;;;;;;;5143736;27;10042;-72
2023/10/02 07:26:16;;;;;;;;;21.00;16.50;;;;;;;;5143751;27;10138;-72
2023/10/02 07:28:50;;;;;;;;;19.75;18.00;;;;;;;;5133636;27;8808;-72
2023/10/02 07:31:19;;;;;;;;;24.00;15.75;;;;;;;;5124373;27;10138;-73
2023/10/02 07:33:47;;;;;;;;;25.25;17.75;;;;;;;;5123535;27;10209;-73
2023/10/02 07:36:15;;;;;;;;;23.25;15.75;;;;;;;;5124454;27;10170;-73
2023/10/02 07:38:47;;;;;;;;;18.50;15.50;;;;;;;;5124239;27;10127;-73
2023/10/02 07:41:24;;;;;;;;;24.75;16.25;;;;;;;;5124196;27;10071;-73
2023/10/02 07:43:54;;;;;;;;;21.50;18.00;;;;;;;;5123001;27;10470;-72
2023/10/02 07:46:21;;;;;;;;;28.50;23.50;;;;;;;;5125478;27;9886;-72
2023/10/02 07:48:57;;;;;;;;;19.25;16.50;;;;;;;;5131112;27;10073;-72
2023/10/02 07:51:30;;;;;;;;;32.00;20.00;;;;;;;;5142257;27;10135;-72
2023/10/02 07:53:56;;;;;;;;;23.50;16.75;;;;;;;;5143225;27;10395;-72
2023/10/02 07:56:23;;;;;;;;;25.25;20.25;;;;;;;;5143577;27;10286;-71
2023/10/02 07:58:54;;;;;;;;;22.00;15.25;;;;;;;;5144535;27;10058;-72
2023/10/02 08:01:21;;;;;;;;;19.50;17.00;;;;;;;;5124999;27;10295;-72
2023/10/02 08:03:49;;;;;;;;;18.75;16.00;;;;;;;;5119685;27;10298;-72
2023/10/02 08:06:21;;;;;;;;;19.50;15.50;;;;;;;;5123943;27;10126;-72
2023/10/02 08:09:35;;;;;;;;;22.50;14.00;;;;;;;;5123162;27;10173;-72
2023/10/02 08:11:37;;;;;;;;;18.25;15.00;;;;;;;;5123704;28;10175;-72
2023/10/02 08:14:02;;;;;;;;;21.75;19.25;;;;;;;;5123041;27;10236;-72
2023/10/02 08:16:32;;;;;;;;;16.75;13.75;;;;;;;;5123512;28;10112;-72
2023/10/02 08:18:58;;;;;;;;;17.25;16.00;;;;;;;;5123601;27;8866;-72
2023/10/02 08:21:36;;;;;;;;;16.75;12.50;;;;;;;;5122374;28;10106;-72
2023/10/02 08:24:05;;;;;;;;;26.75;16.75;;;;;;;;5122516;28;11356;-72
2023/10/02 08:26:40;;;;;;;;;23.00;13.75;;;;;;;;5122772;27;10254;-72
2023/10/02 08:29:06;;;;;;;;;23.75;15.75;;;;;;;;5123250;27;9751;-72
2023/10/02 08:31:32;;;;;;;;;18.50;16.75;;;;;;;;5123328;27;10108;-72
2023/10/02 08:34:05;;;;;;;;;16.75;12.75;;;;;;;;5123027;27;10278;-72
2023/10/02 08:36:31;;;;;;;;;21.50;14.75;;;;;;;;5123456;27;8787;-72
2023/10/02 08:38:59;;;;;;;;;22.50;15.50;;;;;;;;5122737;27;10049;-71
2023/10/02 08:41:25;;;;;;;;;18.50;14.50;;;;;;;;5123431;27;8714;-72
2023/10/02 08:43:50;;;;;;;;;24.75;15.75;;;;;;;;5123163;28;10260;-72
2023/10/02 08:46:24;;;;;;;;;18.25;13.50;;;;;;;;5122769;28;8835;-72
2023/10/02 08:48:56;;;;;;;;;24.50;19.00;;;;;;;;5123300;28;8811;-72
2023/10/02 08:51:35;;;;;;;;;17.75;15.75;;;;;;;;5122414;27;10127;-72
2023/10/02 08:54:05;;;;;;;;;19.75;16.75;;;;;;;;5122894;27;10204;-72
2023/10/02 08:56:48;;;;;;;;;19.25;16.00;;;;;;;;5122031;27;9966;-72
2023/10/02 08:59:18;;;;;;;;;15.25;14.00;;;;;;;;5121510;28;9913;-72
2023/10/02 09:01:47;;;;;;;;;21.50;15.00;;;;;;;;5121563;27;10058;-72
2023/10/02 09:06:53;;;;;;;;;27.50;18.50;;;;;;;;5122675;27;9960;-72
2023/10/02 09:09:26;;;;;;;;;20.00;14.00;;;;;;;;5122534;28;10111;-72
2023/10/02 09:11:57;;;;;;;;;25.50;20.00;;;;;;;;5123004;27;10073;-72
2023/10/02 09:17:07;;;;;;;;;22.00;18.25;;;;;;;;5122930;27;9841;-72
2023/10/02 09:19:37;;;;;;;;;18.50;12.50;;;;;;;;5122934;28;11004;-72
2023/10/02 09:22:06;;;;;;;;;27.75;16.75;;;;;;;;5135954;27;9881;-72
2023/10/02 09:24:35;;;;;;;;;18.00;16.50;;;;;;;;5142178;27;10204;-72
2023/10/02 09:27:28;;;;;;;;;23.75;14.75;;;;;;;;5143402;27;9755;-71
2023/10/02 09:32:50;;;;;;;;;23.00;17.75;;;;;;;;5142512;27;9953;-72
2023/10/02 09:35:44;;;;;;;;;24.25;16.00;;;;;;;;5142008;27;10159;-72
2023/10/02 09:38:10;;;;;;;;;15.50;12.50;;;;;;;;5143234;27;9831;-72
2023/10/02 09:43:31;;;;;;;;;28.50;17.75;;;;;;;;5132601;27;9981;-72
2023/10/02 09:46:05;;;;;;;;;22.00;17.25;;;;;;;;5142655;27;10124;-72
2023/10/02 09:51:20;;;;;;;;;24.25;16.25;;;;;;;;5142326;27;9895;-72
2023/10/02 09:54:09;;;;;;;;;35.00;17.75;;;;;;;;5142844;27;9965;-72
2023/10/02 09:56:51;;;;;;;;;24.50;19.75;;;;;;;;5141669;27;10085;-71
2023/10/02 09:59:19;;;;;;;;;21.50;16.00;;;;;;;;5142542;27;9878;-72
2023/10/02 10:02:07;;;;;;;;;19.25;15.50;;;;;;;;5137602;27;9813;-72
2023/10/02 10:04:54;;;;;;;;;16.75;15.00;;;;;;;;5141697;27;9825;-72
2023/10/02 10:07:37;;;;;;;;;19.50;15.50;;;;;;;;5142216;27;9873;-72
2023/10/02 10:10:27;;;;;;;;;27.00;18.75;;;;;;;;5142783;27;9557;-72
2023/10/02 10:12:55;;;;;;;;;29.75;19.50;;;;;;;;5130014;27;9827;-72
2023/10/02 10:15:23;;;;;;;;;26.25;18.75;;;;;;;;5125503;27;9808;-72
2023/10/02 10:17:52;;;;;;;;;20.50;15.50;;;;;;;;5129546;27;9976;-72
2023/10/02 10:20:20;;;;;;;;;17.25;13.50;;;;;;;;5145766;27;9680;-72
2023/10/02 10:22:51;;;;;;;;;23.50;19.25;;;;;;;;5146030;27;9689;-72
2023/10/02 10:30:49;;;;;;;;;21.25;15.50;;;;;;;;5101832;28;9802;-72
2023/10/02 10:33:16;;;;;;;;;16.50;14.00;;;;;;;;5101642;28;9732;-72
2023/10/02 10:35:52;;;;;;;;;27.25;18.00;;;;;;;;5102185;28;9691;-71
2023/10/02 10:38:28;;;;;;;;;16.33;14.00;;;;;;;;5102486;28;9873;-72
2023/10/02 10:41:00;;;;;;;;;18.75;15.50;;;;;;;;5102321;28;9702;-71
2023/10/02 10:43:26;;;;;;;;;23.75;16.25;;;;;;;;5101800;28;9748;-72
2023/10/02 10:45:55;;;;;;;;;19.75;17.25;;;;;;;;5101463;28;9880;-71
2023/10/02 10:48:23;;;;;;;;;17.25;14.00;;;;;;;;5101771;28;10279;-72
2023/10/02 10:51:06;;;;;;;;;16.00;13.75;;;;;;;;5102357;28;9616;-73
2023/10/02 10:53:39;;;;;;;;;23.33;16.33;;;;;;;;5101599;28;9519;-72
2023/10/02 10:56:16;;;;;;;;;22.00;17.33;;;;;;;;5101360;28;9510;-72
2023/10/02 10:58:43;;;;;;;;;22.50;14.75;;;;;;;;5101473;28;9559;-72
2023/10/02 11:01:13;;;;;;;;;12.75;12.00;;;;;;;;5097821;28;9600;-72
2023/10/02 11:03:38;;;;;;;;;23.75;17.00;;;;;;;;5080897;28;9502;-72
2023/10/02 11:06:04;;;;;;;;;25.00;17.00;;;;;;;;5085503;28;9694;-72
2023/10/02 11:08:31;;;;;;;;;24.67;17.00;;;;;;;;5124751;27;8792;-71
2023/10/02 11:11:02;;;;;;;;;17.00;14.25;;;;;;;;5124707;28;9994;-72
2023/10/02 11:13:28;;;;;;;;;22.67;16.33;;;;;;;;5124837;28;9519;-72
2023/10/02 11:15:59;;;;;;;;;22.33;18.00;;;;;;;;5124220;28;9509;-72
2023/10/02 11:18:26;;;;;;;;;16.00;14.67;;;;;;;;5124220;28;9536;-72
2023/10/02 11:20:55;;;;;;;;;19.67;16.00;;;;;;;;5124096;28;9354;-72
2023/10/02 11:23:37;;;;;;;;;27.00;16.67;;;;;;;;5124398;28;9335;-72
2023/10/02 11:26:02;;;;;;;;;19.33;14.67;;;;;;;;5122711;27;10220;-72
2023/10/02 11:28:31;;;;;;;;;22.00;15.00;;;;;;;;5124636;28;9493;-72
2023/10/02 11:31:29;;;;;;;;;30.67;18.00;;;;;;;;5123338;28;8874;-73
2023/10/02 11:34:12;;;;;;;;;20.00;14.00;;;;;;;;5123892;27;9163;-72
2023/10/02 11:36:39;;;;;;;;;20.67;15.67;;;;;;;;5124350;28;9354;-72
2023/10/02 11:39:16;;;;;;;;;22.00;15.33;;;;;;;;5124470;28;9589;-72
2023/10/02 11:41:41;;;;;;;;;16.67;14.67;;;;;;;;5133040;27;9415;-72
2023/10/02 11:44:07;;;;;;;;;22.67;17.67;;;;;;;;5144879;27;9272;-72
2023/10/02 11:46:33;;;;;;;;;19.00;16.67;;;;;;;;5144054;27;8768;-72
2023/10/02 11:48:58;;;;;;;;;24.00;16.67;;;;;;;;5143250;27;9647;-72
2023/10/02 11:51:28;;;;;;;;;20.00;17.33;;;;;;;;5145044;27;8893;-72
2023/10/02 11:54:05;;;;;;;;;15.00;14.00;;;;;;;;5144357;27;8866;-72
2023/10/02 11:56:30;;;;;;;;;19.67;15.67;;;;;;;;5142625;27;9253;-72
2023/10/02 11:58:59;;;;;;;;;18.67;16.00;;;;;;;;5144084;27;9589;-72
2023/10/02 12:01:27;;;;;;;;;20.00;16.00;;;;;;;;5137666;27;8787;-72
2023/10/02 12:03:56;;;;;;;;;18.33;16.67;;;;;;;;5123601;27;9289;-72
2023/10/02 12:06:23;;;;;;;;;15.67;14.00;;;;;;;;5123862;28;9200;-72
2023/10/02 12:08:49;;;;;;;;;19.33;16.00;;;;;;;;5123316;28;9290;-72
2023/10/02 12:11:14;;;;;;;;;24.33;17.33;;;;;;;;5123391;27;9368;-72
2023/10/02 12:13:44;;;;;;;;;12.67;11.00;;;;;;;;5123880;28;8837;-72
2023/10/02 12:16:11;;;;;;;;;15.00;13.00;;;;;;;;5122924;28;8786;-72
2023/10/02 12:18:41;;;;;;;;;18.33;14.00;;;;;;;;5122231;28;10260;-72
2023/10/02 12:21:08;;;;;;;;;23.33;14.33;;;;;;;;5123106;28;9193;-73
2023/10/02 12:23:38;;;;;;;;;17.00;16.00;;;;;;;;5123712;27;8978;-72
2023/10/02 12:26:04;;;;;;;;;15.67;11.67;;;;;;;;5122360;28;8972;-72
2023/10/02 12:28:29;;;;;;;;;18.00;13.33;;;;;;;;5123441;28;9152;-72
2023/10/02 12:30:55;;;;;;;;;20.33;16.00;;;;;;;;5122152;28;8884;-72
2023/10/02 12:33:20;;;;;;;;;17.00;12.00;;;;;;;;5123370;28;8871;-72
2023/10/02 12:35:45;;;;;;;;;13.67;11.00;;;;;;;;5123416;28;8795;-72
2023/10/02 12:38:13;;;;;;;;;17.33;13.33;;;;;;;;5122598;28;8924;-72
2023/10/02 12:40:38;;;;;;;;;17.00;12.33;;;;;;;;5123632;28;8802;-72
2023/10/02 12:43:04;;;;;;;;;16.00;13.00;;;;;;;;5123197;28;8889;-73
2023/10/02 12:45:35;;;;;;;;;17.33;15.00;;;;;;;;5122629;28;8889;-72
2023/10/02 12:48:06;;;;;;;;;16.25;13.00;;;;;;;;5122741;28;8732;-72
2023/10/02 12:50:39;;;;;;;;;15.75;14.00;;;;;;;;5123614;28;8763;-72
2023/10/02 12:53:04;;;;;;;;;16.25;12.75;;;;;;;;5122881;28;8795;-72
2023/10/02 12:55:36;;;;;;;;;15.33;11.33;;;;;;;;5122511;28;8889;-72
2023/10/02 12:58:04;;;;;;;;;16.50;12.25;;;;;;;;5131823;27;8788;-72
2023/10/02 13:00:29;;;;;;;;;18.75;15.00;;;;;;;;5143994;27;8748;-72
2023/10/02 13:02:56;;;;;;;;;17.00;13.67;;;;;;;;5121923;27;8810;-72
2023/10/02 13:05:22;;;;;;;;;12.75;11.25;;;;;;;;5123039;28;8724;-72
2023/10/02 13:07:48;;;;;;;;;11.00;10.67;;;;;;;;5122869;28;8803;-73
2023/10/02 13:10:14;;;;;;;;;21.33;14.00;;;;;;;;5121555;28;9627;-72
2023/10/02 13:12:40;;;;;;;;;15.75;13.75;;;;;;;;5128036;27;9862;-72
2023/10/02 13:15:06;;;;;;;;;15.33;13.33;;;;;;;;5142036;27;8794;-73
2023/10/02 13:17:31;;;;;;;;;23.00;14.33;;;;;;;;5130030;27;8976;-72
2023/10/02 13:19:57;;;;;;;;;14.67;13.00;;;;;;;;5122844;27;8832;-72
2023/10/02 13:22:23;;;;;;;;;15.33;13.67;;;;;;;;5122740;28;8792;-72
2023/10/02 13:24:49;;;;;;;;;18.33;16.33;;;;;;;;5120883;28;8784;-72
2023/10/02 13:27:17;;;;;;;;;14.75;12.00;;;;;;;;5121961;27;8757;-73
2023/10/02 13:29:43;;;;;;;;;14.00;10.75;;;;;;;;5122591;27;8797;-72
2023/10/02 13:32:08;;;;;;;;;17.00;11.67;;;;;;;;5120976;28;8796;-72
2023/10/02 13:34:33;;;;;;;;;13.33;12.00;;;;;;;;5122577;28;8792;-73
2023/10/02 13:37:00;;;;;;;;;15.00;12.33;;;;;;;;5122869;28;8820;-72
2023/10/02 13:39:25;;;;;;;;;19.75;13.75;;;;;;;;5122390;27;8781;-72
2023/10/02 13:41:50;;;;;;;;;16.67;14.33;;;;;;;;5122181;27;8835;-72
2023/10/02 13:44:17;;;;;;;;;13.33;13.33;;;;;;;;5122512;28;8831;-73
2023/10/02 13:46:42;;;;;;;;;12.00;11.50;;;;;;;;5122338;27;8800;-72
2023/10/02 13:49:08;;;;;;;;;16.33;13.00;;;;;;;;5124941;27;8907;-72
2023/10/02 13:51:34;;;;;;;;;10.00;5.00;;;;;;;;5126247;27;8793;-72
2023/10/02 13:53:59;;;;;;;;;13.33;10.00;;;;;;;;5126073;28;9000;-72
2023/10/02 13:56:32;;;;;;;;;16.00;11.67;;;;;;;;5123211;27;8811;-72
2023/10/02 13:58:57;;;;;;;;;17.50;13.50;;;;;;;;5126116;27;8719;-72
2023/10/02 14:01:26;;;;;;;;;16.67;15.00;;;;;;;;5122979;28;8835;-73
2023/10/02 14:03:52;;;;;;;;;17.00;13.00;;;;;;;;5126011;27;8758;-72
2023/10/02 14:06:19;;;;;;;;;19.00;14.00;;;;;;;;5125487;28;8731;-72
2023/10/02 14:08:44;;;;;;;;;22.50;14.25;;;;;;;;5126095;28;8708;-72
2023/10/02 14:11:14;;;;;;;;;17.67;12.33;;;;;;;;5125231;27;8795;-72
2023/10/02 14:13:39;;;;;;;;;14.00;10.25;;;;;;;;5125704;28;8788;-72
2023/10/02 14:16:05;;;;;;;;;18.00;14.33;;;;;;;;5125428;28;8857;-73
2023/10/02 14:18:31;;;;;;;;;13.67;10.33;;;;;;;;5123905;28;8888;-73
2023/10/02 14:20:56;;;;;;;;;15.00;13.67;;;;;;;;5125967;27;8801;-72
2023/10/02 14:23:22;;;;;;;;;16.33;13.67;;;;;;;;5125386;28;8821;-73
2023/10/02 14:25:47;;;;;;;;;17.00;13.67;;;;;;;;5123885;28;9526;-73
2023/10/02 14:28:12;;;;;;;;;16.33;14.00;;;;;;;;5125810;28;8817;-73
2023/10/02 14:30:39;;;;;;;;;21.67;11.67;;;;;;;;5125025;28;8779;-73
2023/10/02 14:33:05;;;;;;;;;17.50;13.75;;;;;;;;5124974;28;8809;-73
2023/10/02 14:35:30;;;;;;;;;19.00;11.00;;;;;;;;5125095;28;8821;-73
2023/10/02 14:37:56;;;;;;;;;17.67;14.67;;;;;;;;5130732;27;8800;-73
2023/10/02 14:40:29;;;;;;;;;14.33;13.33;;;;;;;;5145286;27;9531;-73
2023/10/02 14:42:57;;;;;;;;;13.25;11.50;;;;;;;;5145963;27;8768;-73
2023/10/02 14:45:26;;;;;;;;;15.75;12.25;;;;;;;;5127667;27;8885;-73
2023/10/02 14:47:53;;;;;;;;;14.00;10.00;;;;;;;;5124953;27;8785;-73
2023/10/02 14:50:19;;;;;;;;;14.75;9.75;;;;;;;;5125276;27;9043;-73
2023/10/02 14:52:44;;;;;;;;;14.00;12.33;;;;;;;;5124923;27;8793;-73
2023/10/02 14:55:16;;;;;;;;;13.00;11.33;;;;;;;;5133035;27;8835;-75
2023/10/02 14:57:43;;;;;;;;;13.25;11.50;;;;;;;;5124145;27;8803;-73
2023/10/02 15:00:09;;;;;;;;;11.50;10.25;;;;;;;;5123030;27;9218;-70
2023/10/02 15:02:35;;;;;;;;;14.00;9.75;;;;;;;;5123238;27;8771;-70
2023/10/02 15:05:00;;;;;;;;;13.50;11.25;;;;;;;;5123559;28;8889;-70
2023/10/02 15:07:29;;;;;;;;;15.00;10.67;;;;;;;;5133449;27;8795;-69
2023/10/02 15:09:55;;;;;;;;;30.50;17.75;;;;;;;;5124372;27;8764;-72
2023/10/02 15:12:20;;;;;;;;;15.25;12.75;;;;;;;;5123306;27;8937;-72
2023/10/02 15:14:46;;;;;;;;;11.00;9.33;;;;;;;;5131723;27;8812;-72
2023/10/02 15:17:11;;;;;;;;;11.33;8.67;;;;;;;;5144991;27;8788;-72
2023/10/02 15:19:37;;;;;;;;;14.67;11.67;;;;;;;;5133458;27;8802;-72
2023/10/02 15:22:02;;;;;;;;;12.33;10.00;;;;;;;;5122721;28;8831;-72
2023/10/02 15:24:30;;;;;;;;;15.33;9.00;;;;;;;;5127931;27;8896;-72
2023/10/02 15:26:57;;;;;;;;;14.50;9.00;;;;;;;;5138414;27;8818;-72